sensor_id;sensor_type;location;lat;lon;timestamp;P1;P2;P0
36453;PMS5003;22478;51.740;-1.314;2022-10-30T00:01:00;203;194;
36453;PMS5003;22478;51.740;-1.314;2022-10-30T00:03:27;174;172;
36453;PMS5003;22478;51.740;-1.314;2022-10-30T00:05:54;215;203;
36453;PMS5003;22478;51.740;-1.314;2022-10-30T00:08:22;167;167;
36453;PMS5003;22478;51.740;-1.314;2022-10-30T00:10:49;166;166;
36453;PMS5003;22478;51.740;-1.314;2022-10-30T00:13:17;201;190;
36453;PMS5003;22478;51.740;-1.314;2022-10-30T00:15:46;176;173;
36453;PMS5003;22478;51.740;-1.314;2022-10-30T00:18:14;177;172;
36453;PMS5003;22478;51.740;-1.314;2022-10-30T00:20:41;196;188;
36453;PMS5003;22478;51.740;-1.314;2022-10-30T00:23:08;159;157;
36453;PMS5003;22478;51.740;-1.314;2022-10-30T00:25:36;193;181;
36453;PMS5003;22478;51.740;-1.314;2022-10-30T00:28:04;194;184;
36453;PMS5003;22478;51.740;-1.314;2022-10-30T00:30:33;168;166;
36453;PMS5003;22478;51.740;-1.314;2022-10-30T00:33:01;162;161;
36453;PMS5003;22478;51.740;-1.314;2022-10-30T00:35:29;168;163;
36453;PMS5003;22478;51.740;-1.314;2022-10-30T00:37:58;185;180;
36453;PMS5003;22478;51.740;-1.314;2022-10-30T00:40:25;176;175;
36453;PMS5003;22478;51.740;-1.314;2022-10-30T00:42:52;178;170;
36453;PMS5003;22478;51.740;-1.314;2022-10-30T00:45:20;168;168;
36453;PMS5003;22478;51.740;-1.314;2022-10-30T00:47:50;170;168;
36453;PMS5003;22478;51.740;-1.314;2022-10-30T00:50:22;168;168;
36453;PMS5003;22478;51.740;-1.314;2022-10-30T00:52:53;170;169;
36453;PMS5003;22478;51.740;-1.314;2022-10-30T00:55:25;175;175;
36453;PMS5003;22478;51.740;-1.314;2022-10-30T00:57:56;199;198;
36453;PMS5003;22478;51.740;-1.314;2022-10-30T01:00:25;173;171;
36453;PMS5003;22478;51.740;-1.314;2022-10-30T01:02:55;171;169;
36453;PMS5003;22478;51.740;-1.314;2022-10-30T01:05:24;182;181;
36453;PMS5003;22478;51.740;-1.314;2022-10-30T01:07:54;186;183;
36453;PMS5003;22478;51.740;-1.314;2022-10-30T01:10:22;194;193;
36453;PMS5003;22478;51.740;-1.314;2022-10-30T01:12:49;171;171;
36453;PMS5003;22478;51.740;-1.314;2022-10-30T01:15:20;188;187;
36453;PMS5003;22478;51.740;-1.314;2022-10-30T01:17:57;188;185;
36453;PMS5003;22478;51.740;-1.314;2022-10-30T01:20:37;182;177;
36453;PMS5003;22478;51.740;-1.314;2022-10-30T01:23:18;188;188;
36453;PMS5003;22478;51.740;-1.314;2022-10-30T01:25:57;177;176;
36453;PMS5003;22478;51.740;-1.314;2022-10-30T01:28:38;207;201;
36453;PMS5003;22478;51.740;-1.314;2022-10-30T01:31:18;190;189;
36453;PMS5003;22478;51.740;-1.314;2022-10-30T01:33:59;169;169;
36453;PMS5003;22478;51.740;-1.314;2022-10-30T01:36:37;199;199;
36453;PMS5003;22478;51.740;-1.314;2022-10-30T01:39:10;172;170;
36453;PMS5003;22478;51.740;-1.314;2022-10-30T01:41:40;172;169;
36453;PMS5003;22478;51.740;-1.314;2022-10-30T01:44:09;189;184;
36453;PMS5003;22478;51.740;-1.314;2022-10-30T01:46:43;213;212;
36453;PMS5003;22478;51.740;-1.314;2022-10-30T01:49:38;203;202;
36453;PMS5003;22478;51.740;-1.314;2022-10-30T01:52:21;169;169;
36453;PMS5003;22478;51.740;-1.314;2022-10-30T01:55:02;213;210;
36453;PMS5003;22478;51.740;-1.314;2022-10-30T01:57:35;175;171;
36453;PMS5003;22478;51.740;-1.314;2022-10-30T02:00:08;173;172;
36453;PMS5003;22478;51.740;-1.314;2022-10-30T02:02:38;176;175;
36453;PMS5003;22478;51.740;-1.314;2022-10-30T02:05:06;191;183;
36453;PMS5003;22478;51.740;-1.314;2022-10-30T02:07:37;168;167;
36453;PMS5003;22478;51.740;-1.314;2022-10-30T02:10:04;190;182;
36453;PMS5003;22478;51.740;-1.314;2022-10-30T02:12:32;204;193;
36453;PMS5003;22478;51.740;-1.314;2022-10-30T02:14:59;166;163;
36453;PMS5003;22478;51.740;-1.314;2022-10-30T02:17:27;181;178;
36453;PMS5003;22478;51.740;-1.314;2022-10-30T02:19:54;179;173;
36453;PMS5003;22478;51.740;-1.314;2022-10-30T02:22:21;182;172;
36453;PMS5003;22478;51.740;-1.314;2022-10-30T02:24:48;173;173;
36453;PMS5003;22478;51.740;-1.314;2022-10-30T02:27:16;156;154;
36453;PMS5003;22478;51.740;-1.314;2022-10-30T02:29:43;202;194;
36453;PMS5003;22478;51.740;-1.314;2022-10-30T02:32:10;191;179;
36453;PMS5003;22478;51.740;-1.314;2022-10-30T02:34:37;185;182;
36453;PMS5003;22478;51.740;-1.314;2022-10-30T02:37:05;189;184;
36453;PMS5003;22478;51.740;-1.314;2022-10-30T02:39:32;181;181;
36453;PMS5003;22478;51.740;-1.314;2022-10-30T02:42:00;221;217;
36453;PMS5003;22478;51.740;-1.314;2022-10-30T02:44:28;205;202;
36453;PMS5003;22478;51.740;-1.314;2022-10-30T02:46:54;193;191;
36453;PMS5003;22478;51.740;-1.314;2022-10-30T02:49:22;193;190;
36453;PMS5003;22478;51.740;-1.314;2022-10-30T02:51:50;194;192;
36453;PMS5003;22478;51.740;-1.314;2022-10-30T02:54:17;202;196;
36453;PMS5003;22478;51.740;-1.314;2022-10-30T02:56:44;179;179;
36453;PMS5003;22478;51.740;-1.314;2022-10-30T02:59:12;169;168;
36453;PMS5003;22478;51.740;-1.314;2022-10-30T03:01:38;196;193;
36453;PMS5003;22478;51.740;-1.314;2022-10-30T03:04:06;227;220;
36453;PMS5003;22478;51.740;-1.314;2022-10-30T03:06:33;193;188;
36453;PMS5003;22478;51.740;-1.314;2022-10-30T03:09:01;160;157;
36453;PMS5003;22478;51.740;-1.314;2022-10-30T03:11:28;190;180;
36453;PMS5003;22478;51.740;-1.314;2022-10-30T03:13:56;179;160;
36453;PMS5003;22478;51.740;-1.314;2022-10-30T03:16:24;171;154;
36453;PMS5003;22478;51.740;-1.314;2022-10-30T03:18:52;148;144;
36453;PMS5003;22478;51.740;-1.314;2022-10-30T03:21:20;143;142;
36453;PMS5003;22478;51.740;-1.314;2022-10-30T03:23:49;173;156;
36453;PMS5003;22478;51.740;-1.314;2022-10-30T03:26:16;148;147;
36453;PMS5003;22478;51.740;-1.314;2022-10-30T03:28:45;164;160;
36453;PMS5003;22478;51.740;-1.314;2022-10-30T03:31:13;166;163;
36453;PMS5003;22478;51.740;-1.314;2022-10-30T03:33:42;168;168;
36453;PMS5003;22478;51.740;-1.314;2022-10-30T03:36:10;207;199;
36453;PMS5003;22478;51.740;-1.314;2022-10-30T03:38:38;170;169;
36453;PMS5003;22478;51.740;-1.314;2022-10-30T03:41:06;176;174;
36453;PMS5003;22478;51.740;-1.314;2022-10-30T03:43:33;182;179;
36453;PMS5003;22478;51.740;-1.314;2022-10-30T03:46:01;165;164;
36453;PMS5003;22478;51.740;-1.314;2022-10-30T03:48:28;181;179;
36453;PMS5003;22478;51.740;-1.314;2022-10-30T03:50:56;172;171;
36453;PMS5003;22478;51.740;-1.314;2022-10-30T03:53:25;179;179;
36453;PMS5003;22478;51.740;-1.314;2022-10-30T03:55:56;176;173;
36453;PMS5003;22478;51.740;-1.314;2022-10-30T03:58:24;195;187;
36453;PMS5003;22478;51.740;-1.314;2022-10-30T04:00:52;163;163;
36453;PMS5003;22478;51.740;-1.314;2022-10-30T04:03:19;174;174;
36453;PMS5003;22478;51.740;-1.314;2022-10-30T04:05:47;200;183;
36453;PMS5003;22478;51.740;-1.314;2022-10-30T04:08:14;146;146;
36453;PMS5003;22478;51.740;-1.314;2022-10-30T04:10:41;165;165;
36453;PMS5003;22478;51.740;-1.314;2022-10-30T04:13:09;194;194;
36453;PMS5003;22478;51.740;-1.314;2022-10-30T04:15:37;193;192;
36453;PMS5003;22478;51.740;-1.314;2022-10-30T04:18:04;167;161;
36453;PMS5003;22478;51.740;-1.314;2022-10-30T04:20:32;153;151;
36453;PMS5003;22478;51.740;-1.314;2022-10-30T04:23:00;142;140;
36453;PMS5003;22478;51.740;-1.314;2022-10-30T04:25:29;155;140;
36453;PMS5003;22478;51.740;-1.314;2022-10-30T04:27:59;163;154;
36453;PMS5003;22478;51.740;-1.314;2022-10-30T04:30:27;162;146;
36453;PMS5003;22478;51.740;-1.314;2022-10-30T04:32:55;155;155;
36453;PMS5003;22478;51.740;-1.314;2022-10-30T04:35:23;155;145;
36453;PMS5003;22478;51.740;-1.314;2022-10-30T04:37:53;161;147;
36453;PMS5003;22478;51.740;-1.314;2022-10-30T04:40:22;155;153;
36453;PMS5003;22478;51.740;-1.314;2022-10-30T04:42:50;166;162;
36453;PMS5003;22478;51.740;-1.314;2022-10-30T04:45:18;155;153;
36453;PMS5003;22478;51.740;-1.314;2022-10-30T04:47:46;151;147;
36453;PMS5003;22478;51.740;-1.314;2022-10-30T04:50:13;165;148;
36453;PMS5003;22478;51.740;-1.314;2022-10-30T04:52:41;142;142;
36453;PMS5003;22478;51.740;-1.314;2022-10-30T04:55:09;187;170;
36453;PMS5003;22478;51.740;-1.314;2022-10-30T04:57:37;155;150;
36453;PMS5003;22478;51.740;-1.314;2022-10-30T05:00:05;170;164;
36453;PMS5003;22478;51.740;-1.314;2022-10-30T05:02:34;149;147;
36453;PMS5003;22478;51.740;-1.314;2022-10-30T05:05:01;161;159;
36453;PMS5003;22478;51.740;-1.314;2022-10-30T05:07:29;160;160;
36453;PMS5003;22478;51.740;-1.314;2022-10-30T05:09:56;182;179;
36453;PMS5003;22478;51.740;-1.314;2022-10-30T05:12:24;184;181;
36453;PMS5003;22478;51.740;-1.314;2022-10-30T05:14:50;193;190;
36453;PMS5003;22478;51.740;-1.314;2022-10-30T05:17:18;193;193;
36453;PMS5003;22478;51.740;-1.314;2022-10-30T05:19:45;193;192;
36453;PMS5003;22478;51.740;-1.314;2022-10-30T05:22:12;196;193;
36453;PMS5003;22478;51.740;-1.314;2022-10-30T05:24:39;188;185;
36453;PMS5003;22478;51.740;-1.314;2022-10-30T05:27:06;203;195;
36453;PMS5003;22478;51.740;-1.314;2022-10-30T05:29:33;244;241;
36453;PMS5003;22478;51.740;-1.314;2022-10-30T05:32:00;191;190;
36453;PMS5003;22478;51.740;-1.314;2022-10-30T05:34:28;178;178;
36453;PMS5003;22478;51.740;-1.314;2022-10-30T05:36:55;177;177;
36453;PMS5003;22478;51.740;-1.314;2022-10-30T05:39:23;182;182;
36453;PMS5003;22478;51.740;-1.314;2022-10-30T05:41:49;177;175;
36453;PMS5003;22478;51.740;-1.314;2022-10-30T05:44:16;180;180;
36453;PMS5003;22478;51.740;-1.314;2022-10-30T05:46:44;205;204;
36453;PMS5003;22478;51.740;-1.314;2022-10-30T05:49:11;241;240;
36453;PMS5003;22478;51.740;-1.314;2022-10-30T05:51:39;193;189;
36453;PMS5003;22478;51.740;-1.314;2022-10-30T05:54:06;191;191;
36453;PMS5003;22478;51.740;-1.314;2022-10-30T05:56:34;190;190;
36453;PMS5003;22478;51.740;-1.314;2022-10-30T05:59:01;231;229;
36453;PMS5003;22478;51.740;-1.314;2022-10-30T06:01:28;167;164;
36453;PMS5003;22478;51.740;-1.314;2022-10-30T06:03:56;172;171;
36453;PMS5003;22478;51.740;-1.314;2022-10-30T06:06:23;184;179;
36453;PMS5003;22478;51.740;-1.314;2022-10-30T06:08:50;170;170;
36453;PMS5003;22478;51.740;-1.314;2022-10-30T06:11:18;180;179;
36453;PMS5003;22478;51.740;-1.314;2022-10-30T06:13:46;190;185;
36453;PMS5003;22478;51.740;-1.314;2022-10-30T06:16:13;174;170;
36453;PMS5003;22478;51.740;-1.314;2022-10-30T06:18:41;175;173;
36453;PMS5003;22478;51.740;-1.314;2022-10-30T06:21:08;203;200;
36453;PMS5003;22478;51.740;-1.314;2022-10-30T06:23:35;172;172;
36453;PMS5003;22478;51.740;-1.314;2022-10-30T06:26:02;173;172;
36453;PMS5003;22478;51.740;-1.314;2022-10-30T06:28:30;176;173;
36453;PMS5003;22478;51.740;-1.314;2022-10-30T06:30:57;182;182;
36453;PMS5003;22478;51.740;-1.314;2022-10-30T06:33:24;181;181;
36453;PMS5003;22478;51.740;-1.314;2022-10-30T06:35:51;181;181;
36453;PMS5003;22478;51.740;-1.314;2022-10-30T06:38:18;178;178;
36453;PMS5003;22478;51.740;-1.314;2022-10-30T06:40:46;180;177;
36453;PMS5003;22478;51.740;-1.314;2022-10-30T06:43:13;187;180;
36453;PMS5003;22478;51.740;-1.314;2022-10-30T06:45:41;221;219;
36453;PMS5003;22478;51.740;-1.314;2022-10-30T06:48:08;189;186;
36453;PMS5003;22478;51.740;-1.314;2022-10-30T06:50:36;192;190;
36453;PMS5003;22478;51.740;-1.314;2022-10-30T06:53:03;182;182;
36453;PMS5003;22478;51.740;-1.314;2022-10-30T06:55:30;187;187;
36453;PMS5003;22478;51.740;-1.314;2022-10-30T06:57:57;192;191;
36453;PMS5003;22478;51.740;-1.314;2022-10-30T07:00:25;215;215;
36453;PMS5003;22478;51.740;-1.314;2022-10-30T07:02:56;224;221;
36453;PMS5003;22478;51.740;-1.314;2022-10-30T07:05:24;181;180;
36453;PMS5003;22478;51.740;-1.314;2022-10-30T07:07:51;201;197;
36453;PMS5003;22478;51.740;-1.314;2022-10-30T07:10:20;179;179;
36453;PMS5003;22478;51.740;-1.314;2022-10-30T07:12:52;179;178;
36453;PMS5003;22478;51.740;-1.314;2022-10-30T07:15:19;181;174;
36453;PMS5003;22478;51.740;-1.314;2022-10-30T07:17:54;178;177;
36453;PMS5003;22478;51.740;-1.314;2022-10-30T07:20:23;184;182;
36453;PMS5003;22478;51.740;-1.314;2022-10-30T07:22:50;178;177;
36453;PMS5003;22478;51.740;-1.314;2022-10-30T07:25:18;179;175;
36453;PMS5003;22478;51.740;-1.314;2022-10-30T07:27:46;183;182;
36453;PMS5003;22478;51.740;-1.314;2022-10-30T07:30:15;176;170;
36453;PMS5003;22478;51.740;-1.314;2022-10-30T07:32:44;191;181;
36453;PMS5003;22478;51.740;-1.314;2022-10-30T07:35:13;171;171;
36453;PMS5003;22478;51.740;-1.314;2022-10-30T07:37:40;183;181;
36453;PMS5003;22478;51.740;-1.314;2022-10-30T07:40:09;188;188;
36453;PMS5003;22478;51.740;-1.314;2022-10-30T07:42:36;182;180;
36453;PMS5003;22478;51.740;-1.314;2022-10-30T07:45:03;190;187;
36453;PMS5003;22478;51.740;-1.314;2022-10-30T07:47:31;193;191;
36453;PMS5003;22478;51.740;-1.314;2022-10-30T07:49:58;240;240;
36453;PMS5003;22478;51.740;-1.314;2022-10-30T07:52:29;192;189;
36453;PMS5003;22478;51.740;-1.314;2022-10-30T07:54:58;187;187;
36453;PMS5003;22478;51.740;-1.314;2022-10-30T07:57:25;192;190;
36453;PMS5003;22478;51.740;-1.314;2022-10-30T07:59:52;203;203;
36453;PMS5003;22478;51.740;-1.314;2022-10-30T08:02:20;199;199;
36453;PMS5003;22478;51.740;-1.314;2022-10-30T08:04:46;201;198;
36453;PMS5003;22478;51.740;-1.314;2022-10-30T08:07:13;210;210;
36453;PMS5003;22478;51.740;-1.314;2022-10-30T08:09:40;203;201;
36453;PMS5003;22478;51.740;-1.314;2022-10-30T08:12:07;208;208;
36453;PMS5003;22478;51.740;-1.314;2022-10-30T08:14:34;200;198;
36453;PMS5003;22478;51.740;-1.314;2022-10-30T08:17:01;203;203;
36453;PMS5003;22478;51.740;-1.314;2022-10-30T08:19:28;202;195;
36453;PMS5003;22478;51.740;-1.314;2022-10-30T08:21:56;198;193;
36453;PMS5003;22478;51.740;-1.314;2022-10-30T08:24:22;183;177;
36453;PMS5003;22478;51.740;-1.314;2022-10-30T08:26:50;190;187;
36453;PMS5003;22478;51.740;-1.314;2022-10-30T08:29:17;222;221;
36453;PMS5003;22478;51.740;-1.314;2022-10-30T08:31:46;161;159;
36453;PMS5003;22478;51.740;-1.314;2022-10-30T08:34:14;172;169;
36453;PMS5003;22478;51.740;-1.314;2022-10-30T08:36:50;231;224;
36453;PMS5003;22478;51.740;-1.314;2022-10-30T08:39:18;211;211;
36453;PMS5003;22478;51.740;-1.314;2022-10-30T08:41:45;213;213;
36453;PMS5003;22478;51.740;-1.314;2022-10-30T08:44:13;239;239;
36453;PMS5003;22478;51.740;-1.314;2022-10-30T08:46:40;238;236;
36453;PMS5003;22478;51.740;-1.314;2022-10-30T08:49:07;229;229;
36453;PMS5003;22478;51.740;-1.314;2022-10-30T08:51:35;240;238;
36453;PMS5003;22478;51.740;-1.314;2022-10-30T08:54:02;244;242;
36453;PMS5003;22478;51.740;-1.314;2022-10-30T08:56:29;244;242;
36453;PMS5003;22478;51.740;-1.314;2022-10-30T08:58:57;219;217;
36453;PMS5003;22478;51.740;-1.314;2022-10-30T09:01:23;247;247;
36453;PMS5003;22478;51.740;-1.314;2022-10-30T09:03:51;240;240;
36453;PMS5003;22478;51.740;-1.314;2022-10-30T09:06:18;243;240;
36453;PMS5003;22478;51.740;-1.314;2022-10-30T09:08:45;236;234;
36453;PMS5003;22478;51.740;-1.314;2022-10-30T09:11:12;218;218;
36453;PMS5003;22478;51.740;-1.314;2022-10-30T09:13:40;213;212;
36453;PMS5003;22478;51.740;-1.314;2022-10-30T09:16:07;253;252;
36453;PMS5003;22478;51.740;-1.314;2022-10-30T09:18:35;254;254;
36453;PMS5003;22478;51.740;-1.314;2022-10-30T09:21:02;246;245;
36453;PMS5003;22478;51.740;-1.314;2022-10-30T09:23:29;176;174;
36453;PMS5003;22478;51.740;-1.314;2022-10-30T09:25:57;172;169;
36453;PMS5003;22478;51.740;-1.314;2022-10-30T09:28:24;234;233;
36453;PMS5003;22478;51.740;-1.314;2022-10-30T09:30:52;225;224;
36453;PMS5003;22478;51.740;-1.314;2022-10-30T09:33:18;248;247;
36453;PMS5003;22478;51.740;-1.314;2022-10-30T09:35:45;215;215;
36453;PMS5003;22478;51.740;-1.314;2022-10-30T09:38:13;239;236;
36453;PMS5003;22478;51.740;-1.314;2022-10-30T09:40:43;258;258;
36453;PMS5003;22478;51.740;-1.314;2022-10-30T09:43:23;257;253;
36453;PMS5003;22478;51.740;-1.314;2022-10-30T09:46:04;273;273;
36453;PMS5003;22478;51.740;-1.314;2022-10-30T09:48:45;234;228;
36453;PMS5003;22478;51.740;-1.314;2022-10-30T09:51:37;198;189;
36453;PMS5003;22478;51.740;-1.314;2022-10-30T09:54:54;197;193;
36453;PMS5003;22478;51.740;-1.314;2022-10-30T09:57:33;179;179;
36453;PMS5003;22478;51.740;-1.314;2022-10-30T10:00:09;208;203;
36453;PMS5003;22478;51.740;-1.314;2022-10-30T10:02:42;259;259;
36453;PMS5003;22478;51.740;-1.314;2022-10-30T10:05:20;255;255;
36453;PMS5003;22478;51.740;-1.314;2022-10-30T10:07:51;259;259;
36453;PMS5003;22478;51.740;-1.314;2022-10-30T10:10:24;218;218;
36453;PMS5003;22478;51.740;-1.314;2022-10-30T10:13:00;251;250;
36453;PMS5003;22478;51.740;-1.314;2022-10-30T10:15:32;271;263;
36453;PMS5003;22478;51.740;-1.314;2022-10-30T10:18:08;242;242;
36453;PMS5003;22478;51.740;-1.314;2022-10-30T10:20:43;251;247;
36453;PMS5003;22478;51.740;-1.314;2022-10-30T10:23:15;243;242;
36453;PMS5003;22478;51.740;-1.314;2022-10-30T10:25:44;245;244;
36453;PMS5003;22478;51.740;-1.314;2022-10-30T10:28:22;245;245;
36453;PMS5003;22478;51.740;-1.314;2022-10-30T10:31:10;247;244;
36453;PMS5003;22478;51.740;-1.314;2022-10-30T10:33:50;251;250;
36453;PMS5003;22478;51.740;-1.314;2022-10-30T10:36:29;214;208;
36453;PMS5003;22478;51.740;-1.314;2022-10-30T10:39:07;221;219;
36453;PMS5003;22478;51.740;-1.314;2022-10-30T10:41:51;216;213;
36453;PMS5003;22478;51.740;-1.314;2022-10-30T10:44:32;266;266;
36453;PMS5003;22478;51.740;-1.314;2022-10-30T10:47:14;298;298;
36453;PMS5003;22478;51.740;-1.314;2022-10-30T10:49:56;281;277;
36453;PMS5003;22478;51.740;-1.314;2022-10-30T10:52:36;303;301;
36453;PMS5003;22478;51.740;-1.314;2022-10-30T10:55:09;257;253;
36453;PMS5003;22478;51.740;-1.314;2022-10-30T10:57:41;225;222;
36453;PMS5003;22478;51.740;-1.314;2022-10-30T11:00:13;203;195;
36453;PMS5003;22478;51.740;-1.314;2022-10-30T11:02:44;181;179;
36453;PMS5003;22478;51.740;-1.314;2022-10-30T11:05:20;183;183;
36453;PMS5003;22478;51.740;-1.314;2022-10-30T11:07:53;202;192;
36453;PMS5003;22478;51.740;-1.314;2022-10-30T11:10:24;213;198;
36453;PMS5003;22478;51.740;-1.314;2022-10-30T11:12:52;185;184;
36453;PMS5003;22478;51.740;-1.314;2022-10-30T11:15:23;181;179;
36453;PMS5003;22478;51.740;-1.314;2022-10-30T11:17:59;190;190;
36453;PMS5003;22478;51.740;-1.314;2022-10-30T11:20:29;183;181;
36453;PMS5003;22478;51.740;-1.314;2022-10-30T11:23:02;189;187;
36453;PMS5003;22478;51.740;-1.314;2022-10-30T11:25:33;187;187;
36453;PMS5003;22478;51.740;-1.314;2022-10-30T11:28:02;183;181;
36453;PMS5003;22478;51.740;-1.314;2022-10-30T11:30:31;210;199;
36453;PMS5003;22478;51.740;-1.314;2022-10-30T11:32:59;242;235;
36453;PMS5003;22478;51.740;-1.314;2022-10-30T11:35:47;303;303;
36453;PMS5003;22478;51.740;-1.314;2022-10-30T11:38:17;314;314;
36453;PMS5003;22478;51.740;-1.314;2022-10-30T11:40:45;206;206;
36453;PMS5003;22478;51.740;-1.314;2022-10-30T11:43:15;191;189;
36453;PMS5003;22478;51.740;-1.314;2022-10-30T11:45:47;184;184;
36453;PMS5003;22478;51.740;-1.314;2022-10-30T11:48:18;249;249;
36453;PMS5003;22478;51.740;-1.314;2022-10-30T11:50:48;269;269;
36453;PMS5003;22478;51.740;-1.314;2022-10-30T11:53:19;245;245;
36453;PMS5003;22478;51.740;-1.314;2022-10-30T11:55:49;226;226;
36453;PMS5003;22478;51.740;-1.314;2022-10-30T11:58:20;274;267;
36453;PMS5003;22478;51.740;-1.314;2022-10-30T12:00:57;281;276;
36453;PMS5003;22478;51.740;-1.314;2022-10-30T12:03:27;248;239;
36453;PMS5003;22478;51.740;-1.314;2022-10-30T12:06:05;244;231;
36453;PMS5003;22478;51.740;-1.314;2022-10-30T12:08:34;283;283;
36453;PMS5003;22478;51.740;-1.314;2022-10-30T12:11:02;316;315;
36453;PMS5003;22478;51.740;-1.314;2022-10-30T12:13:32;196;194;
36453;PMS5003;22478;51.740;-1.314;2022-10-30T12:16:06;212;211;
36453;PMS5003;22478;51.740;-1.314;2022-10-30T12:18:38;191;191;
36453;PMS5003;22478;51.740;-1.314;2022-10-30T12:21:06;207;205;
36453;PMS5003;22478;51.740;-1.314;2022-10-30T12:23:33;207;207;
36453;PMS5003;22478;51.740;-1.314;2022-10-30T12:26:06;193;193;
36453;PMS5003;22478;51.740;-1.314;2022-10-30T12:28:36;222;222;
36453;PMS5003;22478;51.740;-1.314;2022-10-30T12:31:05;222;221;
36453;PMS5003;22478;51.740;-1.314;2022-10-30T12:33:41;256;247;
36453;PMS5003;22478;51.740;-1.314;2022-10-30T12:36:13;236;234;
36453;PMS5003;22478;51.740;-1.314;2022-10-30T12:38:44;248;248;
36453;PMS5003;22478;51.740;-1.314;2022-10-30T12:41:17;235;234;
36453;PMS5003;22478;51.740;-1.314;2022-10-30T12:43:50;240;240;
36453;PMS5003;22478;51.740;-1.314;2022-10-30T12:46:27;247;246;
36453;PMS5003;22478;51.740;-1.314;2022-10-30T12:49:04;305;301;
36453;PMS5003;22478;51.740;-1.314;2022-10-30T12:51:39;322;321;
36453;PMS5003;22478;51.740;-1.314;2022-10-30T12:54:18;227;219;
36453;PMS5003;22478;51.740;-1.314;2022-10-30T12:56:52;208;200;
36453;PMS5003;22478;51.740;-1.314;2022-10-30T12:59:29;185;185;
36453;PMS5003;22478;51.740;-1.314;2022-10-30T13:02:10;189;188;
36453;PMS5003;22478;51.740;-1.314;2022-10-30T13:04:46;181;181;
36453;PMS5003;22478;51.740;-1.314;2022-10-30T13:07:18;216;202;
36453;PMS5003;22478;51.740;-1.314;2022-10-30T13:09:55;192;188;
36453;PMS5003;22478;51.740;-1.314;2022-10-30T13:12:30;210;210;
36453;PMS5003;22478;51.740;-1.314;2022-10-30T13:15:00;206;205;
36453;PMS5003;22478;51.740;-1.314;2022-10-30T13:17:29;195;195;
36453;PMS5003;22478;51.740;-1.314;2022-10-30T13:19:56;214;199;
36453;PMS5003;22478;51.740;-1.314;2022-10-30T13:22:26;162;156;
36453;PMS5003;22478;51.740;-1.314;2022-10-30T13:25:02;160;160;
36453;PMS5003;22478;51.740;-1.314;2022-10-30T13:27:38;174;170;
36453;PMS5003;22478;51.740;-1.314;2022-10-30T13:30:13;174;174;
36453;PMS5003;22478;51.740;-1.314;2022-10-30T13:32:49;172;171;
36453;PMS5003;22478;51.740;-1.314;2022-10-30T13:35:27;170;170;
36453;PMS5003;22478;51.740;-1.314;2022-10-30T13:38:02;178;177;
36453;PMS5003;22478;51.740;-1.314;2022-10-30T13:40:40;156;151;
36453;PMS5003;22478;51.740;-1.314;2022-10-30T13:43:16;160;154;
36453;PMS5003;22478;51.740;-1.314;2022-10-30T13:45:57;152;140;
36453;PMS5003;22478;51.740;-1.314;2022-10-30T13:48:41;165;154;
36453;PMS5003;22478;51.740;-1.314;2022-10-30T13:51:23;152;150;
36453;PMS5003;22478;51.740;-1.314;2022-10-30T13:54:03;157;142;
36453;PMS5003;22478;51.740;-1.314;2022-10-30T13:56:40;170;161;
36453;PMS5003;22478;51.740;-1.314;2022-10-30T13:59:12;167;167;
36453;PMS5003;22478;51.740;-1.314;2022-10-30T14:01:54;198;192;
36453;PMS5003;22478;51.740;-1.314;2022-10-30T14:04:29;209;199;
36453;PMS5003;22478;51.740;-1.314;2022-10-30T14:07:07;217;205;
36453;PMS5003;22478;51.740;-1.314;2022-10-30T14:09:49;194;180;
36453;PMS5003;22478;51.740;-1.314;2022-10-30T14:13:04;191;191;
36453;PMS5003;22478;51.740;-1.314;2022-10-30T14:15:40;192;178;
36453;PMS5003;22478;51.740;-1.314;2022-10-30T14:19:14;238;235;
36453;PMS5003;22478;51.740;-1.314;2022-10-30T14:21:43;258;257;
36453;PMS5003;22478;51.740;-1.314;2022-10-30T14:24:18;273;273;
36453;PMS5003;22478;51.740;-1.314;2022-10-30T14:26:50;243;241;
36453;PMS5003;22478;51.740;-1.314;2022-10-30T14:29:40;236;236;
36453;PMS5003;22478;51.740;-1.314;2022-10-30T14:32:47;232;224;
36453;PMS5003;22478;51.740;-1.314;2022-10-30T14:35:33;229;228;
36453;PMS5003;22478;51.740;-1.314;2022-10-30T14:38:34;230;230;
36453;PMS5003;22478;51.740;-1.314;2022-10-30T14:41:04;220;220;
36453;PMS5003;22478;51.740;-1.314;2022-10-30T14:43:44;273;269;
36453;PMS5003;22478;51.740;-1.314;2022-10-30T14:46:20;272;271;
36453;PMS5003;22478;51.740;-1.314;2022-10-30T14:48:56;215;215;
36453;PMS5003;22478;51.740;-1.314;2022-10-30T14:51:33;211;210;
36453;PMS5003;22478;51.740;-1.314;2022-10-30T14:54:05;201;197;
36453;PMS5003;22478;51.740;-1.314;2022-10-30T14:56:41;232;232;
36453;PMS5003;22478;51.740;-1.314;2022-10-30T14:59:21;254;245;
36453;PMS5003;22478;51.740;-1.314;2022-10-30T15:01:59;250;247;
36453;PMS5003;22478;51.740;-1.314;2022-10-30T15:04:44;198;196;
36453;PMS5003;22478;51.740;-1.314;2022-10-30T15:07:23;206;206;
36453;PMS5003;22478;51.740;-1.314;2022-10-30T15:09:58;287;287;
36453;PMS5003;22478;51.740;-1.314;2022-10-30T15:12:37;260;260;
36453;PMS5003;22478;51.740;-1.314;2022-10-30T15:15:17;219;216;
36453;PMS5003;22478;51.740;-1.314;2022-10-30T15:17:45;235;232;
36453;PMS5003;22478;51.740;-1.314;2022-10-30T15:20:15;250;249;
36453;PMS5003;22478;51.740;-1.314;2022-10-30T15:22:46;254;253;
36453;PMS5003;22478;51.740;-1.314;2022-10-30T15:25:17;302;301;
36453;PMS5003;22478;51.740;-1.314;2022-10-30T15:27:46;272;272;
36453;PMS5003;22478;51.740;-1.314;2022-10-30T15:30:18;290;289;
36453;PMS5003;22478;51.740;-1.314;2022-10-30T15:32:46;305;305;
36453;PMS5003;22478;51.740;-1.314;2022-10-30T15:35:15;308;307;
36453;PMS5003;22478;51.740;-1.314;2022-10-30T15:38:01;300;300;
36453;PMS5003;22478;51.740;-1.314;2022-10-30T15:40:30;275;272;
36453;PMS5003;22478;51.740;-1.314;2022-10-30T15:43:00;268;268;
36453;PMS5003;22478;51.740;-1.314;2022-10-30T15:45:31;259;259;
36453;PMS5003;22478;51.740;-1.314;2022-10-30T15:48:03;273;273;
36453;PMS5003;22478;51.740;-1.314;2022-10-30T15:50:33;251;250;
36453;PMS5003;22478;51.740;-1.314;2022-10-30T15:53:02;245;242;
36453;PMS5003;22478;51.740;-1.314;2022-10-30T15:55:30;241;241;
36453;PMS5003;22478;51.740;-1.314;2022-10-30T15:57:59;216;216;